createdAt,value
2024-02-08T00:01:11.511Z,96596.66
2024-02-08T00:03:38.982Z,96593.00
2024-02-08T00:06:06.164Z,96595.08
2024-02-08T00:08:36.131Z,96594.89
2024-02-08T00:11:07.640Z,96596.36
2024-02-08T00:13:35.626Z,96606.80
2024-02-08T00:16:02.903Z,96605.27
2024-02-08T00:18:29.896Z,96599.20
2024-02-08T00:20:57.212Z,96595.93
2024-02-08T00:23:24.197Z,96590.98
2024-02-08T00:25:51.646Z,96585.63
2024-02-08T00:28:18.693Z,96587.99
2024-02-08T00:30:46.536Z,96590.17
2024-02-08T00:33:13.548Z,96592.31
2024-02-08T00:35:40.778Z,96590.93
2024-02-08T00:38:08.213Z,96593.47
2024-02-08T00:40:35.081Z,96600.92
2024-02-08T00:43:07.666Z,96602.95
2024-02-08T00:45:35.312Z,96610.66
2024-02-08T00:48:05.240Z,96616.38
2024-02-08T00:50:32.118Z,96614.50
2024-02-08T00:52:59.668Z,96617.96
2024-02-08T00:55:30.979Z,96615.84
2024-02-08T00:57:57.976Z,96618.23
2024-02-08T01:00:24.832Z,96616.60
2024-02-08T01:02:51.605Z,96614.11
2024-02-08T01:05:21.945Z,96612.29
2024-02-08T01:07:48.735Z,96614.04
2024-02-08T01:10:15.679Z,96618.41
2024-02-08T01:12:44.058Z,96617.50
2024-02-08T01:15:15.317Z,96615.52
2024-02-08T01:17:43.072Z,96614.28
2024-02-08T01:20:11.345Z,96609.81
2024-02-08T01:22:38.280Z,96605.61
2024-02-08T01:25:05.621Z,96603.09
2024-02-08T01:27:32.765Z,96603.86
2024-02-08T01:30:08.168Z,96603.92
2024-02-08T01:32:35.126Z,96608.92
2024-02-08T01:35:01.862Z,96604.31
2024-02-08T01:37:29.332Z,96601.09
2024-02-08T01:39:57.668Z,96598.38
2024-02-08T01:42:24.518Z,96597.23
2024-02-08T01:45:02.517Z,96599.42
2024-02-08T01:47:29.365Z,96599.96
2024-02-08T01:49:56.877Z,96603.13
2024-02-08T01:52:24.662Z,96600.84
2024-02-08T01:54:51.587Z,96600.32
2024-02-08T01:57:18.660Z,96600.94
2024-02-08T02:00:22.918Z,96603.23
2024-02-08T02:06:37.997Z,96601.55
2024-02-08T02:10:24.259Z,96600.64
2024-02-08T02:13:50.725Z,96597.55
2024-02-08T02:17:29.306Z,96598.15
2024-02-08T02:21:16.301Z,96596.38
2024-02-08T02:25:02.512Z,96594.56
2024-02-08T02:28:50.267Z,96595.06
2024-02-08T02:32:36.922Z,96593.31
2024-02-08T02:36:23.416Z,96594.48
2024-02-08T02:40:09.856Z,96596.49
2024-02-08T02:43:59.229Z,96594.15
2024-02-08T02:47:47.666Z,96591.42
2024-02-08T02:51:34.579Z,96591.40
2024-02-08T02:55:21.315Z,96590.81
2024-02-08T02:59:08.346Z,96591.70
2024-02-08T03:02:55.214Z,96592.17
2024-02-08T03:06:43.003Z,96586.61
2024-02-08T03:14:15.124Z,96583.91
2024-02-08T03:18:02.319Z,96581.53
2024-02-08T03:21:49.225Z,96590.86
2024-02-08T03:25:38.948Z,96599.74
2024-02-08T03:29:05.732Z,96597.41
2024-02-08T03:32:53.690Z,96603.55
2024-02-08T03:36:40.622Z,96601.11
2024-02-08T03:40:27.821Z,96598.33
2024-02-08T03:43:54.754Z,96605.52
2024-02-08T03:47:41.097Z,96600.34
2024-02-08T03:51:27.498Z,96601.64
2024-02-08T03:55:14.820Z,96597.44
2024-02-08T03:59:06.431Z,96602.14
2024-02-08T04:02:58.990Z,96604.33
2024-02-08T04:05:47.917Z,96614.13
2024-02-08T04:08:33.622Z,96615.89
2024-02-08T04:11:00.304Z,96614.23
2024-02-08T04:13:45.723Z,96610.30
2024-02-08T04:16:31.075Z,96613.45
2024-02-08T04:19:17.852Z,96610.86
2024-02-08T04:22:03.184Z,96612.80
2024-02-08T04:24:48.196Z,96609.76
2024-02-08T04:27:32.886Z,96605.83
2024-02-08T04:30:17.744Z,96606.67
2024-02-08T04:33:06.181Z,96607.29
2024-02-08T04:35:51.177Z,96600.90
2024-02-08T04:38:36.079Z,96593.23
2024-02-08T04:41:21.941Z,96594.02
2024-02-08T04:44:07.653Z,96595.73
2024-02-08T04:46:52.994Z,96597.38
2024-02-08T04:49:37.731Z,96595.90
2024-02-08T04:52:23.097Z,96596.78
2024-02-08T04:54:49.675Z,96598.35
2024-02-08T04:57:16.294Z,96596.84
2024-02-08T04:59:45.500Z,96597.09
2024-02-08T05:02:12.743Z,96603.25
2024-02-08T05:04:39.236Z,96606.69
2024-02-08T05:07:07.295Z,96603.67
2024-02-08T05:09:34.101Z,96603.39
2024-02-08T05:12:03.110Z,96601.26
2024-02-08T05:14:29.672Z,96606.68
2024-02-08T05:16:56.775Z,96609.00
2024-02-08T05:19:24.535Z,96613.05
2024-02-08T05:21:51.787Z,96617.73
2024-02-08T05:25:24.502Z,96621.88
2024-02-08T05:29:08.584Z,96621.55
2024-02-08T05:32:59.376Z,96622.04
2024-02-08T05:36:49.055Z,96617.54
2024-02-08T05:40:15.674Z,96619.73
2024-02-08T05:44:02.700Z,96620.20
2024-02-08T05:47:52.490Z,96614.80
2024-02-08T05:51:18.889Z,96618.41
2024-02-08T06:11:07.319Z,96632.65
2024-02-08T06:14:54.596Z,96636.53
2024-02-08T06:18:47.336Z,96637.94
2024-02-08T06:22:42.954Z,96640.07
2024-02-08T06:26:33.984Z,96638.73
2024-02-08T06:34:06.753Z,96633.26
2024-02-08T06:37:56.298Z,96639.17
2024-02-08T06:41:47.392Z,96640.77
2024-02-08T06:45:47.222Z,96634.71
2024-02-08T06:49:32.459Z,96638.47
2024-02-08T06:53:20.673Z,96639.25
2024-02-08T06:57:06.781Z,96644.95
2024-02-08T07:00:54.766Z,96645.27
2024-02-08T07:04:39.892Z,96648.69
2024-02-08T07:08:25.476Z,96650.96
2024-02-08T07:12:10.595Z,96650.49
2024-02-08T07:15:55.760Z,96642.38
2024-02-08T07:19:40.646Z,96643.25
2024-02-08T07:23:26.105Z,96640.92
2024-02-08T07:27:17.598Z,96644.63
2024-02-08T07:31:04.423Z,96635.53
2024-02-08T07:34:50.080Z,96639.66
2024-02-08T07:38:39.970Z,96633.85
2024-02-08T07:42:28.761Z,96631.70
2024-02-08T07:46:39.240Z,96627.79
2024-02-08T07:50:31.920Z,96624.66
2024-02-08T07:54:30.917Z,96635.13
2024-02-08T07:58:21.680Z,96639.86
2024-02-08T08:02:19.290Z,96641.33
2024-02-08T08:06:06.594Z,96639.69
2024-02-08T08:09:56.864Z,96637.48
2024-02-08T08:13:45.752Z,96630.91
2024-02-08T08:17:38.450Z,96620.48
2024-02-08T08:21:25.565Z,96618.96
2024-02-08T08:25:21.951Z,96610.16
2024-02-08T08:29:16.841Z,96607.38
2024-02-08T08:33:03.824Z,96613.80
2024-02-08T08:36:50.969Z,96613.59
2024-02-08T08:40:46.996Z,96618.49
2024-02-08T08:48:23.759Z,96608.61
2024-02-08T08:52:12.144Z,96604.64
2024-02-08T08:55:59.743Z,96605.85
2024-02-08T08:59:47.305Z,96601.36
2024-02-08T09:03:52.753Z,96600.48
2024-02-08T09:07:42.514Z,96602.38
2024-02-08T09:11:36.316Z,96602.52
2024-02-08T09:15:44.890Z,96602.19
2024-02-08T09:19:35.098Z,96597.38
2024-02-08T09:23:29.045Z,96590.14
2024-02-08T09:27:16.892Z,96568.46
2024-02-08T09:31:04.161Z,96567.98
2024-02-08T09:35:01.381Z,96574.72
2024-02-08T09:38:48.396Z,96574.52
2024-02-08T09:46:42.958Z,96578.48
2024-02-08T09:50:34.370Z,96574.98
2024-02-08T09:54:36.446Z,96568.84
2024-02-08T10:02:29.568Z,96544.38
2024-02-08T10:06:16.484Z,96546.13
2024-02-08T10:10:03.834Z,96544.12
2024-02-08T10:13:58.557Z,96543.45
2024-02-08T10:21:21.291Z,96540.38
2024-02-08T10:25:06.589Z,96529.41
2024-02-08T10:29:01.038Z,96524.29
2024-02-08T10:32:49.442Z,96516.39
2024-02-08T10:36:42.387Z,96513.01
2024-02-08T10:40:50.944Z,96513.37
2024-02-08T10:44:46.038Z,96514.86
2024-02-08T10:48:46.873Z,96519.18
2024-02-08T10:52:35.707Z,96510.48
2024-02-08T10:56:23.538Z,96503.61
2024-02-08T11:00:11.898Z,96499.85
2024-02-08T11:04:10.974Z,96495.81
2024-02-08T11:07:58.176Z,96493.84
2024-02-08T11:11:48.288Z,96480.37
2024-02-08T11:15:35.689Z,96463.23
2024-02-08T11:19:23.387Z,96465.10
2024-02-08T11:23:13.226Z,96462.73
2024-02-08T11:27:10.216Z,96464.88
2024-02-08T11:30:59.940Z,96472.83
2024-02-08T11:38:19.012Z,96461.60
2024-02-08T11:42:09.475Z,96458.67
2024-02-08T11:45:59.742Z,96452.20
2024-02-08T11:49:54.682Z,96449.34
2024-02-08T11:53:46.799Z,96445.60
2024-02-08T11:57:36.178Z,96434.14
2024-02-08T12:01:36.329Z,96429.10
2024-02-08T12:05:26.806Z,96422.66
2024-02-08T12:09:38.306Z,96416.87
2024-02-08T12:13:38.024Z,96413.48
2024-02-08T12:17:28.492Z,96414.15
2024-02-08T12:25:06.693Z,96407.12
2024-02-08T12:29:00.597Z,96404.98
2024-02-08T12:32:52.693Z,96399.20
2024-02-08T12:36:51.408Z,96392.33
2024-02-08T12:40:40.777Z,96394.17
2024-02-08T12:44:30.766Z,96374.45
2024-02-08T12:48:24.361Z,96355.21
2024-02-08T12:56:20.863Z,96365.38
2024-02-08T13:00:15.675Z,96362.77
2024-02-08T13:04:09.049Z,96371.63
2024-02-08T13:14:57.438Z,96370.02
2024-02-08T13:18:45.892Z,96358.94
2024-02-08T13:22:35.208Z,96362.15
2024-02-08T13:26:36.866Z,96356.36
2024-02-08T13:30:24.690Z,96354.44
2024-02-08T13:34:12.364Z,96346.61
2024-02-08T13:37:59.690Z,96347.52
2024-02-08T13:41:47.643Z,96345.75
2024-02-08T13:45:38.803Z,96348.73
2024-02-08T13:53:13.320Z,96340.89
2024-02-08T13:57:03.692Z,96336.13
2024-02-08T14:00:56.963Z,96331.23
2024-02-08T14:04:52.947Z,96330.18
2024-02-08T14:08:42.073Z,96323.61
2024-02-08T14:12:32.404Z,96318.30
2024-02-08T14:16:19.742Z,96317.13
2024-02-08T14:20:08.511Z,96322.16
2024-02-08T14:23:58.036Z,96318.52
2024-02-08T14:27:43.669Z,96313.74
2024-02-08T14:31:33.913Z,96320.35
2024-02-08T14:35:19.413Z,96321.73
2024-02-08T14:39:07.594Z,96322.98
2024-02-08T14:42:57.636Z,96317.86
2024-02-08T14:46:44.742Z,96316.20
2024-02-08T14:50:37.405Z,96315.27
2024-02-08T14:54:25.577Z,96310.35
2024-02-08T14:58:12.702Z,96307.02
2024-02-08T15:01:59.658Z,96302.05
2024-02-08T15:05:46.839Z,96304.97
2024-02-08T15:09:32.385Z,96301.46
2024-02-08T15:13:22.324Z,96305.92
2024-02-08T15:17:10.447Z,96304.27
2024-02-08T15:20:58.176Z,96300.63
2024-02-08T15:24:44.831Z,96301.52
2024-02-08T15:28:47.892Z,96300.50
2024-02-08T15:32:40.585Z,96292.01
2024-02-08T15:40:15.615Z,96280.17
2024-02-08T15:44:05.437Z,96279.55
2024-02-08T15:47:52.828Z,96278.79
2024-02-08T15:51:39.905Z,96276.34
2024-02-08T15:55:27.416Z,96271.20
2024-02-08T16:03:08.883Z,96267.75
2024-02-08T16:07:02.317Z,96269.81
2024-02-08T16:10:52.180Z,96273.55
2024-02-08T16:14:39.467Z,96268.89
2024-02-08T16:18:27.613Z,96266.58
2024-02-08T16:22:13.946Z,96265.61
2024-02-08T16:26:07.245Z,96255.46
2024-02-08T16:29:57.137Z,96247.35
2024-02-08T16:33:52.783Z,96243.91
2024-02-08T16:37:51.773Z,96246.31
2024-02-08T16:41:39.411Z,96247.80
2024-02-08T16:45:26.701Z,96247.16
2024-02-08T16:49:16.693Z,96260.83
2024-02-08T16:53:04.018Z,96255.94
2024-02-08T16:56:51.115Z,96255.94
2024-02-08T17:00:50.310Z,96257.19
2024-02-08T17:04:37.049Z,96253.70
2024-02-08T17:08:24.041Z,96259.72
2024-02-08T17:12:10.692Z,96259.19
2024-02-08T17:16:01.417Z,96253.45
2024-02-08T17:19:51.074Z,96244.08
2024-02-08T17:23:38.156Z,96237.80
2024-02-08T17:27:24.907Z,96222.20
2024-02-08T17:31:21.114Z,96223.89
2024-02-08T17:35:08.351Z,96215.02
2024-02-08T17:38:55.052Z,96216.66
2024-02-08T17:42:42.207Z,96206.83
2024-02-08T17:46:30.717Z,96204.58
2024-02-08T17:50:20.583Z,96209.04
2024-02-08T17:54:08.075Z,96203.30
2024-02-08T17:57:55.296Z,96197.05
2024-02-08T18:01:42.374Z,96197.17
2024-02-08T18:05:32.571Z,96193.95
2024-02-08T18:09:21.263Z,96184.23
2024-02-08T18:13:08.598Z,96180.90
2024-02-08T18:16:58.909Z,96176.63
2024-02-08T18:20:49.035Z,96170.44
2024-02-08T18:24:38.571Z,96171.79
2024-02-08T18:28:28.599Z,96169.99
2024-02-08T18:32:15.959Z,96164.11
2024-02-08T18:36:03.175Z,96156.90
2024-02-08T18:39:52.915Z,96154.89
2024-02-08T18:43:39.998Z,96155.13
2024-02-08T18:47:26.956Z,96156.73
2024-02-08T18:51:13.838Z,96147.90
2024-02-08T18:55:00.966Z,96141.58
2024-02-08T18:58:50.876Z,96136.48
2024-02-08T19:02:48.296Z,96132.55
2024-02-08T19:06:38.369Z,96128.21
2024-02-08T19:10:31.145Z,96119.48
2024-02-08T19:14:18.565Z,96109.13
2024-02-08T19:18:07.971Z,96104.67
2024-02-08T19:22:10.224Z,96101.86
2024-02-08T19:25:57.322Z,96104.30
2024-02-08T19:29:45.638Z,96101.73
2024-02-08T19:33:32.400Z,96097.30
2024-02-08T19:37:22.392Z,96095.02
2024-02-08T19:41:09.558Z,96088.90
2024-02-08T19:45:00.437Z,96082.70
2024-02-08T19:48:48.513Z,96080.17
2024-02-08T19:52:36.965Z,96072.70
2024-02-08T19:56:26.615Z,96071.88
2024-02-08T19:59:58.895Z,96071.92
2024-02-08T20:03:46.270Z,96069.77
2024-02-08T20:07:34.636Z,96069.95
2024-02-08T20:11:21.819Z,96071.62
2024-02-08T20:15:09.250Z,96071.49
2024-02-08T20:18:57.846Z,96068.92
2024-02-08T20:22:45.131Z,96064.73
2024-02-08T20:26:33.396Z,96065.16
2024-02-08T20:30:20.775Z,96063.05
2024-02-08T20:34:11.250Z,96057.39
2024-02-08T20:37:58.416Z,96055.61
2024-02-08T20:41:46.999Z,96050.39
2024-02-08T20:45:34.313Z,96050.50
2024-02-08T20:49:24.070Z,96056.21
2024-02-08T20:52:51.395Z,96048.80
2024-02-08T20:56:44.278Z,96041.50
2024-02-08T21:00:36.936Z,96032.28
2024-02-08T21:04:24.244Z,96031.46
2024-02-08T21:08:12.640Z,96025.98
2024-02-08T21:12:11.968Z,96022.16
2024-02-08T21:16:01.794Z,96006.69
2024-02-08T21:23:18.984Z,95991.76
2024-02-08T21:34:07.914Z,95997.29
2024-02-08T21:51:55.999Z,95992.67
2024-02-08T21:55:46.669Z,95997.46
2024-02-08T22:02:11.378Z,95991.20
2024-02-08T22:06:06.500Z,95992.05
2024-02-08T22:09:57.551Z,95976.14
2024-02-08T22:13:46.054Z,95965.19
2024-02-08T22:24:26.619Z,95967.90
2024-02-08T22:39:08.050Z,95973.52
2024-02-08T22:43:02.135Z,95983.15
2024-02-08T22:46:49.420Z,95984.15
2024-02-08T22:50:48.980Z,95989.02
2024-02-08T23:02:47.671Z,96002.27
2024-02-08T23:07:02.909Z,96011.38
